createdAt,value
2023-03-01T00:00:05.812Z,-0.43
2023-03-01T00:02:40.549Z,-0.31
2023-03-01T00:05:09.708Z,-0.28
2023-03-01T00:07:38.241Z,-0.28
2023-03-01T00:10:08.906Z,-0.27
2023-03-01T00:12:38.555Z,-0.31
2023-03-01T00:15:07.052Z,-0.34
2023-03-01T00:17:35.078Z,-0.31
2023-03-01T00:20:03.015Z,-0.42
2023-03-01T00:22:32.834Z,-0.54
2023-03-01T00:25:01.295Z,-0.59
2023-03-01T00:27:30.773Z,-0.57
2023-03-01T00:29:58.972Z,-0.57
2023-03-01T00:32:27.272Z,-0.56
2023-03-01T00:34:56.536Z,-0.64
2023-03-01T00:37:24.926Z,-0.65
2023-03-01T00:39:53.121Z,-0.66
2023-03-01T00:42:23.108Z,-0.76
2023-03-01T00:44:58.013Z,-0.69
2023-03-01T00:47:26.762Z,-0.71
2023-03-01T00:49:54.826Z,-0.76
2023-03-01T00:52:23.816Z,-0.83
2023-03-01T00:54:55.401Z,-0.79
2023-03-01T00:57:23.690Z,-0.76
2023-03-01T00:59:53.420Z,-0.68
2023-03-01T01:02:22.756Z,-0.56
2023-03-01T01:04:51.057Z,-0.49
2023-03-01T01:07:21.648Z,-0.44
2023-03-01T01:09:49.992Z,-0.47
2023-03-01T01:12:19.913Z,-0.51
2023-03-01T01:14:47.904Z,-0.41
2023-03-01T01:17:17.993Z,-0.69
2023-03-01T01:19:45.989Z,-0.94
2023-03-01T01:22:14.638Z,-1.08
2023-03-01T01:24:45.051Z,-0.94
2023-03-01T01:27:13.077Z,-0.99
2023-03-01T01:29:41.115Z,-0.94
2023-03-01T01:32:09.306Z,-0.88
2023-03-01T01:34:38.690Z,-0.80
2023-03-01T01:37:08.948Z,-0.71
2023-03-01T01:39:37.073Z,-0.64
2023-03-01T01:42:05.024Z,-0.79
2023-03-01T01:44:35.745Z,-0.72
2023-03-01T01:47:05.688Z,-0.75
2023-03-01T01:49:37.402Z,-0.55
2023-03-01T01:52:10.934Z,-0.46
2023-03-01T01:54:41.889Z,-0.25
2023-03-01T01:57:11.210Z,-0.09
2023-03-01T01:59:40.078Z,0.15
2023-03-01T02:02:07.991Z,0.21
2023-03-01T02:04:36.348Z,0.01
2023-03-01T02:07:08.870Z,-0.21
2023-03-01T02:09:38.455Z,-0.48
2023-03-01T02:12:07.258Z,-0.67
2023-03-01T02:14:39.217Z,-0.72
2023-03-01T02:17:07.676Z,-0.74
2023-03-01T02:19:42.829Z,-0.81
2023-03-01T02:22:18.646Z,-0.72
2023-03-01T02:24:57.302Z,-0.60
2023-03-01T02:27:31.321Z,-0.57
2023-03-01T02:30:00.708Z,-0.54
2023-03-01T02:32:28.783Z,-0.59
2023-03-01T02:34:57.985Z,-0.69
2023-03-01T02:37:27.445Z,-0.71
2023-03-01T02:39:59.967Z,-0.63
2023-03-01T02:42:29.021Z,-0.58
2023-03-01T02:44:57.122Z,-0.46
2023-03-01T02:47:26.317Z,-0.50
2023-03-01T02:49:55.938Z,-0.43
2023-03-01T02:52:33.279Z,-0.36
2023-03-01T02:55:03.337Z,-0.47
2023-03-01T02:57:32.370Z,-0.41
2023-03-01T03:00:09.021Z,-0.41
2023-03-01T03:02:40.233Z,-0.43
2023-03-01T03:05:25.024Z,-0.50
2023-03-01T03:07:56.415Z,-0.49
2023-03-01T03:10:27.140Z,-0.49
2023-03-01T03:12:56.633Z,-0.55
2023-03-01T03:15:25.442Z,-0.51
2023-03-01T03:17:55.360Z,-0.48
2023-03-01T03:20:25.821Z,-0.46
2023-03-01T03:22:55.199Z,-0.59
2023-03-01T03:25:23.973Z,-0.60
2023-03-01T03:27:57.801Z,-0.65
2023-03-01T03:30:27.495Z,-0.67
2023-03-01T03:32:57.645Z,-0.63
2023-03-01T03:35:29.135Z,-0.61
2023-03-01T03:38:07.104Z,-0.52
2023-03-01T03:40:36.596Z,-0.66
2023-03-01T03:43:05.512Z,-0.45
2023-03-01T03:45:36.011Z,-0.40
2023-03-01T03:48:07.200Z,-0.28
2023-03-01T03:50:35.181Z,-0.26
2023-03-01T03:53:03.601Z,-0.44
2023-03-01T03:55:33.272Z,-0.59
2023-03-01T03:58:03.726Z,-0.55
2023-03-01T04:00:31.578Z,-0.46
2023-03-01T04:02:59.551Z,-0.40
2023-03-01T04:05:29.589Z,-0.42
2023-03-01T04:08:08.459Z,-0.45
2023-03-01T04:10:37.718Z,-0.46
2023-03-01T04:13:08.751Z,-0.39
2023-03-01T04:15:37.002Z,-0.47
2023-03-01T04:18:06.681Z,-0.50
2023-03-01T04:20:37.152Z,-0.55
2023-03-01T04:23:12.017Z,-0.51
2023-03-01T04:25:40.942Z,-0.49
2023-03-01T04:28:09.201Z,-0.58
2023-03-01T04:30:39.453Z,-0.61
2023-03-01T04:33:08.229Z,-0.58
2023-03-01T04:35:38.825Z,-0.57
2023-03-01T04:38:07.515Z,-0.43
2023-03-01T04:40:35.567Z,-0.52
2023-03-01T04:43:03.788Z,-0.49
2023-03-01T04:45:32.208Z,-0.46
2023-03-01T04:48:00.551Z,-0.48
2023-03-01T04:50:29.456Z,-0.36
2023-03-01T04:53:00.331Z,-0.36
2023-03-01T04:55:28.627Z,-0.41
2023-03-01T04:57:58.732Z,-0.52
2023-03-01T05:00:27.171Z,-0.51
2023-03-01T05:02:55.946Z,-0.49
2023-03-01T05:05:26.905Z,-0.57
2023-03-01T05:07:58.657Z,-0.52
2023-03-01T05:10:31.132Z,-0.55
2023-03-01T05:13:00.777Z,-0.56
2023-03-01T05:15:30.093Z,-0.54
2023-03-01T05:18:00.406Z,-0.54
2023-03-01T05:20:29.630Z,-0.49
2023-03-01T05:22:59.660Z,-0.49
2023-03-01T05:25:34.098Z,-0.44
2023-03-01T05:28:05.407Z,-0.44
2023-03-01T05:30:34.022Z,-0.44
2023-03-01T05:33:02.732Z,-0.43
2023-03-01T05:35:33.626Z,-0.43
2023-03-01T05:38:01.740Z,-0.18
2023-03-01T05:40:31.366Z,-0.31
2023-03-01T05:42:59.377Z,-0.45
2023-03-01T05:45:28.280Z,-0.39
2023-03-01T05:47:56.616Z,-0.48
2023-03-01T05:50:26.379Z,-0.38
2023-03-01T05:52:58.793Z,-0.54
2023-03-01T05:55:28.170Z,-0.50
2023-03-01T05:57:59.905Z,-0.68
2023-03-01T06:00:28.132Z,-0.81
2023-03-01T06:02:56.704Z,-0.81
2023-03-01T06:05:25.963Z,-0.85
2023-03-01T06:07:57.441Z,-0.88
2023-03-01T06:10:27.390Z,-0.72
2023-03-01T06:12:55.562Z,-0.52
2023-03-01T06:15:27.923Z,-0.46
2023-03-01T06:17:59.715Z,-0.62
2023-03-01T06:20:29.224Z,-0.62
2023-03-01T06:22:57.102Z,-0.75
2023-03-01T06:25:26.794Z,-0.69
2023-03-01T06:27:54.759Z,-0.60
2023-03-01T06:30:26.503Z,-0.62
2023-03-01T06:33:02.385Z,-0.52
2023-03-01T06:35:31.821Z,-0.70
2023-03-01T06:38:00.484Z,-0.63
2023-03-01T06:40:28.486Z,-0.49
2023-03-01T06:42:56.271Z,-0.33
2023-03-01T06:45:28.352Z,-0.03
2023-03-01T06:48:03.497Z,-0.31
2023-03-01T06:50:31.450Z,-0.51
2023-03-01T06:52:59.609Z,-0.45
2023-03-01T06:55:27.808Z,-0.20
2023-03-01T06:57:59.538Z,-0.12
2023-03-01T07:00:29.557Z,-0.09
2023-03-01T07:03:00.245Z,0.00
2023-03-01T07:05:28.530Z,-0.10
2023-03-01T07:07:57.264Z,0.00
2023-03-01T07:10:25.513Z,0.06
2023-03-01T07:12:56.654Z,0.18
2023-03-01T07:15:24.623Z,0.25
2023-03-01T07:17:53.945Z,0.65
2023-03-01T07:20:25.790Z,0.63
2023-03-01T07:22:53.943Z,0.94
2023-03-01T07:25:21.853Z,1.06
2023-03-01T07:27:51.265Z,0.88
2023-03-01T07:30:19.195Z,0.96
2023-03-01T07:32:48.021Z,1.29
2023-03-01T07:35:17.705Z,1.40
2023-03-01T07:37:45.743Z,1.13
2023-03-01T07:40:14.288Z,1.49
2023-03-01T07:42:42.369Z,1.53
2023-03-01T07:45:10.972Z,1.23
2023-03-01T07:47:41.533Z,1.21
2023-03-01T07:50:10.687Z,1.73
2023-03-01T07:52:40.081Z,1.32
2023-03-01T07:55:10.937Z,1.48
2023-03-01T07:57:39.279Z,1.49
2023-03-01T08:00:07.882Z,1.64
2023-03-01T08:02:43.291Z,1.65
2023-03-01T08:05:11.580Z,2.08
2023-03-01T08:07:41.048Z,2.18
2023-03-01T08:10:09.639Z,2.09
2023-03-01T08:12:37.926Z,1.73
2023-03-01T08:15:05.983Z,2.04
2023-03-01T08:17:35.505Z,2.16
2023-03-01T08:20:04.459Z,2.43
2023-03-01T08:22:32.272Z,2.47
2023-03-01T08:25:01.375Z,2.77
2023-03-01T08:27:29.307Z,2.63
2023-03-01T08:29:57.122Z,2.74
2023-03-01T08:32:25.489Z,2.83
2023-03-01T08:34:53.593Z,2.77
2023-03-01T08:37:21.699Z,2.72
2023-03-01T08:39:49.649Z,2.37
2023-03-01T08:42:19.256Z,2.95
2023-03-01T08:44:48.193Z,3.46
2023-03-01T08:47:16.408Z,3.26
2023-03-01T08:49:44.450Z,3.30
2023-03-01T08:52:14.856Z,3.47
2023-03-01T08:54:43.286Z,3.09
2023-03-01T08:57:11.377Z,3.10
2023-03-01T08:59:41.102Z,3.32
2023-03-01T09:02:14.802Z,3.01
2023-03-01T09:04:42.981Z,3.22
2023-03-01T09:07:10.947Z,3.05
2023-03-01T09:09:40.082Z,3.26
2023-03-01T09:12:08.800Z,3.09
2023-03-01T09:14:39.916Z,3.37
2023-03-01T09:17:09.379Z,3.76
2023-03-01T09:19:38.130Z,3.52
2023-03-01T09:22:06.189Z,3.63
2023-03-01T09:24:34.503Z,3.77
2023-03-01T09:27:03.067Z,4.11
2023-03-01T09:29:31.993Z,4.16
2023-03-01T09:32:01.647Z,4.45
2023-03-01T09:34:33.289Z,4.25
2023-03-01T09:37:03.470Z,4.70
2023-03-01T09:39:33.099Z,5.08
2023-03-01T09:42:03.337Z,5.38
2023-03-01T09:44:35.989Z,5.34
2023-03-01T09:47:05.097Z,5.23
2023-03-01T09:49:36.183Z,5.81
2023-03-01T09:52:11.296Z,5.94
2023-03-01T09:54:39.117Z,5.97
2023-03-01T09:57:12.241Z,6.41
2023-03-01T09:59:48.251Z,6.93
2023-03-01T10:02:24.455Z,8.07
2023-03-01T10:04:56.887Z,8.65
2023-03-01T10:07:30.318Z,7.84
2023-03-01T10:09:58.398Z,7.61
2023-03-01T10:12:29.455Z,6.85
2023-03-01T10:14:59.961Z,8.40
2023-03-01T10:17:31.099Z,8.66
2023-03-01T10:20:08.305Z,8.67
2023-03-01T10:22:36.774Z,9.47
2023-03-01T10:25:06.187Z,10.61
2023-03-01T10:27:39.044Z,11.32
2023-03-01T10:30:13.095Z,10.98
2023-03-01T10:32:41.582Z,10.27
2023-03-01T10:35:19.812Z,10.52
2023-03-01T10:38:00.789Z,10.23
2023-03-01T10:40:28.819Z,9.22
2023-03-01T10:42:59.659Z,8.80
2023-03-01T10:45:36.726Z,8.96
2023-03-01T10:48:13.454Z,8.31
2023-03-01T10:50:43.125Z,8.23
2023-03-01T10:53:22.664Z,8.89
2023-03-01T10:55:59.213Z,10.06
2023-03-01T10:58:27.247Z,10.08
2023-03-01T11:00:56.268Z,9.61
2023-03-01T11:03:25.658Z,10.45
2023-03-01T11:05:59.948Z,10.01
2023-03-01T11:08:34.481Z,9.46
2023-03-01T11:11:07.333Z,8.66
2023-03-01T11:13:37.504Z,10.35
2023-03-01T11:16:08.939Z,9.81
2023-03-01T11:18:47.810Z,10.42
2023-03-01T11:21:18.221Z,9.89
2023-03-01T11:23:47.994Z,11.80
2023-03-01T11:26:18.042Z,11.91
2023-03-01T11:28:49.363Z,8.53
2023-03-01T11:31:18.011Z,8.54
2023-03-01T11:33:50.330Z,8.81
2023-03-01T11:36:25.959Z,11.86
2023-03-01T11:38:55.695Z,12.77
2023-03-01T11:41:26.304Z,10.13
2023-03-01T11:43:56.636Z,9.79
2023-03-01T11:46:45.940Z,10.19
2023-03-01T11:49:23.956Z,12.33
2023-03-01T11:51:58.379Z,13.76
2023-03-01T11:54:32.360Z,12.57
2023-03-01T11:57:03.777Z,12.94
2023-03-01T11:59:42.160Z,13.27
2023-03-01T12:02:18.906Z,13.67
2023-03-01T12:04:58.073Z,14.94
2023-03-01T12:07:33.658Z,16.17
2023-03-01T12:10:25.420Z,15.25
2023-03-01T12:13:03.626Z,15.39
2023-03-01T12:15:41.572Z,15.33
2023-03-01T12:18:22.397Z,14.24
2023-03-01T12:20:57.915Z,14.81
2023-03-01T12:23:49.105Z,15.00
2023-03-01T12:26:22.388Z,16.00
2023-03-01T12:28:54.541Z,15.68
2023-03-01T12:31:35.508Z,14.76
2023-03-01T12:34:09.723Z,13.92
2023-03-01T12:36:47.172Z,15.30
2023-03-01T12:39:30.470Z,14.37
2023-03-01T12:42:03.966Z,12.92
2023-03-01T12:44:50.284Z,14.11
2023-03-01T12:47:30.238Z,13.87
2023-03-01T12:50:00.512Z,15.09
2023-03-01T12:52:36.291Z,15.45
2023-03-01T12:55:10.968Z,15.10
2023-03-01T12:57:43.399Z,13.57
2023-03-01T13:00:20.393Z,14.36
2023-03-01T13:02:52.754Z,13.47
2023-03-01T13:05:26.138Z,14.57
2023-03-01T13:08:00.326Z,12.91
2023-03-01T13:10:31.970Z,14.21
2023-03-01T13:13:05.881Z,14.74
2023-03-01T13:15:35.509Z,14.67
2023-03-01T13:18:04.884Z,12.99
2023-03-01T13:20:35.829Z,13.55
2023-03-01T13:23:07.038Z,14.48
2023-03-01T13:25:42.519Z,14.70
2023-03-01T13:28:38.224Z,13.90
2023-03-01T13:31:08.992Z,14.68
2023-03-01T13:33:46.296Z,15.18
2023-03-01T13:36:30.993Z,15.56
2023-03-01T13:39:01.104Z,15.79
2023-03-01T13:41:45.687Z,14.19
2023-03-01T13:44:15.081Z,14.08
2023-03-01T13:46:46.349Z,12.53
2023-03-01T13:49:16.938Z,13.89
2023-03-01T13:51:48.421Z,13.15
2023-03-01T13:54:17.305Z,14.13
2023-03-01T13:56:48.668Z,13.53
2023-03-01T13:59:18.611Z,12.02
2023-03-01T14:01:57.418Z,12.73
2023-03-01T14:04:32.573Z,12.94
2023-03-01T14:07:14.321Z,13.43
2023-03-01T14:09:43.034Z,12.73
2023-03-01T14:12:18.080Z,13.92
2023-03-01T14:14:54.542Z,14.20
2023-03-01T14:17:41.225Z,13.04
2023-03-01T14:20:16.177Z,14.56
2023-03-01T14:22:45.358Z,13.49
2023-03-01T14:25:22.721Z,14.20
2023-03-01T14:27:56.431Z,14.83
2023-03-01T14:30:26.151Z,13.84
2023-03-01T14:32:56.375Z,12.86
2023-03-01T14:35:26.085Z,13.32
2023-03-01T14:37:54.574Z,14.74
2023-03-01T14:40:24.315Z,11.73
2023-03-01T14:42:55.089Z,12.31
2023-03-01T14:45:23.736Z,11.53
2023-03-01T14:47:52.022Z,11.29
2023-03-01T14:50:24.453Z,11.55
2023-03-01T14:52:56.690Z,12.64
2023-03-01T14:55:28.008Z,11.51
2023-03-01T14:58:03.493Z,11.44
2023-03-01T15:00:34.548Z,11.13
2023-03-01T15:03:11.047Z,11.61
2023-03-01T15:05:41.765Z,11.55
2023-03-01T15:08:19.474Z,11.31
2023-03-01T15:10:58.620Z,11.17
2023-03-01T15:13:27.712Z,11.38
2023-03-01T15:15:56.590Z,12.04
2023-03-01T15:18:28.202Z,11.95
2023-03-01T15:20:58.055Z,11.95
2023-03-01T15:23:27.300Z,11.78
2023-03-01T15:26:04.038Z,11.30
2023-03-01T15:28:36.091Z,11.44
2023-03-01T15:31:06.914Z,11.79
2023-03-01T15:33:36.596Z,11.64
2023-03-01T15:36:27.664Z,12.13
2023-03-01T15:38:56.554Z,11.26
2023-03-01T15:41:28.110Z,11.51
2023-03-01T15:43:57.831Z,12.13
2023-03-01T15:46:30.979Z,12.12
2023-03-01T15:49:00.943Z,11.82
2023-03-01T15:51:34.738Z,10.74
2023-03-01T15:54:05.542Z,10.24
2023-03-01T15:56:34.049Z,10.84
2023-03-01T15:59:03.713Z,11.29
2023-03-01T16:01:35.345Z,10.75
2023-03-01T16:04:03.389Z,10.53
2023-03-01T16:06:31.736Z,10.48
2023-03-01T16:09:01.166Z,10.41
2023-03-01T16:11:29.196Z,9.99
2023-03-01T16:13:57.597Z,10.43
2023-03-01T16:16:25.557Z,10.89
2023-03-01T16:18:56.644Z,10.93
2023-03-01T16:21:25.903Z,11.02
2023-03-01T16:23:54.309Z,10.64
2023-03-01T16:26:23.966Z,9.64
2023-03-01T16:28:51.883Z,9.13
2023-03-01T16:31:20.973Z,8.96
2023-03-01T16:33:53.846Z,8.65
2023-03-01T16:36:24.487Z,8.72
2023-03-01T16:38:52.779Z,8.63
2023-03-01T16:41:22.236Z,8.42
2023-03-01T16:43:52.319Z,8.11
2023-03-01T16:46:21.841Z,7.99
2023-03-01T16:48:51.789Z,7.78
2023-03-01T16:51:20.357Z,7.56
2023-03-01T16:53:48.271Z,7.24
2023-03-01T16:56:16.509Z,7.10
2023-03-01T16:58:45.339Z,6.92
2023-03-01T17:01:18.782Z,6.74
2023-03-01T17:03:48.262Z,6.62
2023-03-01T17:06:21.443Z,6.61
2023-03-01T17:08:50.575Z,6.51
2023-03-01T17:11:19.866Z,6.45
2023-03-01T17:13:48.324Z,6.36
2023-03-01T17:16:19.629Z,6.30
2023-03-01T17:18:48.344Z,6.27
2023-03-01T17:21:18.692Z,6.12
2023-03-01T17:23:48.172Z,6.11
2023-03-01T17:26:16.166Z,5.94
2023-03-01T17:28:45.581Z,5.90
2023-03-01T17:31:13.392Z,5.79
2023-03-01T17:33:42.532Z,5.72
2023-03-01T17:36:10.278Z,5.78
2023-03-01T17:38:38.463Z,5.74
2023-03-01T17:41:08.402Z,5.69
2023-03-01T17:43:36.024Z,5.67
2023-03-01T17:46:03.999Z,5.54
2023-03-01T17:48:31.918Z,5.49
2023-03-01T17:51:01.242Z,5.40
2023-03-01T17:53:30.205Z,5.25
2023-03-01T17:56:02.682Z,5.22
2023-03-01T17:58:30.866Z,5.21
2023-03-01T18:01:08.690Z,5.24
2023-03-01T18:03:36.631Z,5.25
2023-03-01T18:06:11.029Z,5.18
2023-03-01T18:08:39.190Z,5.05
2023-03-01T18:11:08.000Z,5.05
2023-03-01T18:13:36.103Z,4.90
2023-03-01T18:16:08.594Z,4.78
2023-03-01T18:18:37.411Z,4.76
2023-03-01T18:21:07.859Z,4.80
2023-03-01T18:23:36.988Z,4.68
2023-03-01T18:26:06.290Z,4.66
2023-03-01T18:28:36.390Z,4.71
2023-03-01T18:31:05.758Z,4.70
2023-03-01T18:33:33.892Z,4.68
2023-03-01T18:36:01.762Z,4.53
2023-03-01T18:38:31.019Z,4.60
2023-03-01T18:40:58.900Z,4.46
2023-03-01T18:43:28.798Z,4.49
2023-03-01T18:45:58.276Z,4.54
2023-03-01T18:48:26.789Z,4.48
2023-03-01T18:50:55.137Z,4.45
2023-03-01T18:53:25.564Z,4.51
2023-03-01T18:56:00.236Z,4.45
2023-03-01T18:58:27.934Z,4.32
2023-03-01T19:00:55.714Z,4.26
2023-03-01T19:03:23.659Z,4.27
2023-03-01T19:05:51.528Z,4.27
2023-03-01T19:08:19.354Z,4.28
2023-03-01T19:10:47.916Z,4.23
2023-03-01T19:13:16.966Z,4.15
2023-03-01T19:15:44.818Z,4.18
2023-03-01T19:18:15.378Z,4.23
2023-03-01T19:20:46.741Z,4.10
2023-03-01T19:23:16.666Z,4.12
2023-03-01T19:25:44.417Z,4.10
2023-03-01T19:28:12.412Z,3.99
2023-03-01T19:30:41.902Z,3.93
2023-03-01T19:33:11.053Z,3.98
2023-03-01T19:35:38.915Z,3.96
2023-03-01T19:38:07.084Z,3.92
2023-03-01T19:40:36.639Z,3.93
2023-03-01T19:43:04.761Z,3.87
2023-03-01T19:45:33.819Z,3.88
2023-03-01T19:48:03.137Z,3.81
2023-03-01T19:50:30.713Z,3.71
2023-03-01T19:52:58.594Z,3.70
2023-03-01T19:55:26.562Z,3.72
2023-03-01T19:57:54.253Z,3.71
2023-03-01T20:00:22.327Z,3.67
2023-03-01T20:02:50.122Z,3.61
2023-03-01T20:05:19.524Z,3.52
2023-03-01T20:07:47.576Z,3.49
2023-03-01T20:10:15.625Z,3.44
2023-03-01T20:12:43.488Z,3.36
2023-03-01T20:15:11.620Z,3.33
2023-03-01T20:17:39.405Z,3.38
2023-03-01T20:20:07.663Z,3.31
2023-03-01T20:22:39.807Z,3.34
2023-03-01T20:25:10.736Z,3.30
2023-03-01T20:27:38.653Z,3.17
2023-03-01T20:30:07.294Z,3.26
2023-03-01T20:32:35.578Z,3.21
2023-03-01T20:35:03.266Z,3.16
2023-03-01T20:37:31.103Z,3.13
2023-03-01T20:40:00.403Z,3.07
2023-03-01T20:42:28.986Z,3.02
2023-03-01T20:44:56.739Z,3.04
2023-03-01T20:47:24.879Z,3.02
2023-03-01T20:49:53.305Z,3.00
2023-03-01T20:52:21.221Z,2.97
2023-03-01T20:54:49.430Z,2.95
2023-03-01T20:57:18.636Z,2.90
2023-03-01T20:59:47.153Z,2.93
2023-03-01T21:02:14.978Z,2.86
2023-03-01T21:04:42.694Z,2.88
2023-03-01T21:07:10.617Z,2.89
2023-03-01T21:09:39.674Z,2.86
2023-03-01T21:12:09.081Z,2.78
2023-03-01T21:14:43.450Z,2.79
2023-03-01T21:17:11.701Z,2.77
2023-03-01T21:19:39.998Z,2.70
2023-03-01T21:22:09.834Z,2.73
2023-03-01T21:24:39.785Z,2.70
2023-03-01T21:27:09.798Z,2.65
2023-03-01T21:29:38.534Z,2.65
2023-03-01T21:32:09.955Z,2.57
2023-03-01T21:34:39.524Z,2.53
2023-03-01T21:37:10.411Z,2.45
2023-03-01T21:39:39.029Z,2.43
2023-03-01T21:42:07.264Z,2.41
2023-03-01T21:44:35.354Z,2.41
2023-03-01T21:47:03.130Z,2.37
2023-03-01T21:49:33.040Z,2.35
2023-03-01T21:52:01.014Z,2.26
2023-03-01T21:54:29.110Z,2.24
2023-03-01T21:56:58.700Z,2.23
2023-03-01T21:59:27.191Z,2.17
2023-03-01T22:01:55.187Z,2.20
2023-03-01T22:04:25.005Z,2.21
2023-03-01T22:06:55.681Z,2.21
2023-03-01T22:09:24.802Z,2.22
2023-03-01T22:11:54.232Z,2.16
2023-03-01T22:14:24.209Z,2.13
2023-03-01T22:16:55.262Z,2.13
2023-03-01T22:19:27.133Z,2.15
2023-03-01T22:21:56.515Z,2.08
2023-03-01T22:24:25.924Z,2.10
2023-03-01T22:26:54.887Z,2.04
2023-03-01T22:29:24.400Z,2.11
2023-03-01T22:31:53.085Z,2.05
2023-03-01T22:34:22.344Z,2.01
2023-03-01T22:36:50.656Z,2.03
2023-03-01T22:39:21.230Z,1.98
2023-03-01T22:41:50.262Z,1.91
2023-03-01T22:44:20.476Z,1.92
2023-03-01T22:46:49.164Z,1.95
2023-03-01T22:49:17.893Z,1.95
2023-03-01T22:51:47.644Z,1.95
2023-03-01T22:54:16.682Z,1.99
2023-03-01T22:56:46.699Z,1.99
2023-03-01T22:59:16.072Z,1.97
2023-03-01T23:01:46.440Z,1.92
2023-03-01T23:04:15.344Z,1.87
2023-03-01T23:06:51.984Z,1.89
2023-03-01T23:09:24.250Z,1.84
2023-03-01T23:11:53.819Z,1.76
2023-03-01T23:14:22.384Z,1.80
2023-03-01T23:16:50.651Z,1.75
2023-03-01T23:19:19.118Z,1.76
2023-03-01T23:21:50.323Z,1.77
2023-03-01T23:24:19.418Z,1.75
2023-03-01T23:26:51.892Z,1.73
2023-03-01T23:29:21.212Z,1.76
2023-03-01T23:31:48.982Z,1.75
2023-03-01T23:34:17.370Z,1.80
2023-03-01T23:36:46.130Z,1.77
2023-03-01T23:39:14.749Z,1.77
2023-03-01T23:41:42.849Z,1.79
2023-03-01T23:44:13.735Z,1.82
2023-03-01T23:46:45.018Z,1.78
2023-03-01T23:49:13.888Z,1.77
2023-03-01T23:51:44.365Z,1.80
2023-03-01T23:54:14.887Z,1.73
2023-03-01T23:56:44.696Z,1.67
2023-03-01T23:59:14.470Z,1.64
